createdAt,value
2018-11-14T00:00:33.833Z,0
2018-11-14T00:01:14.303Z,0
2018-11-14T00:01:54.687Z,0
2018-11-14T00:02:35.096Z,0
2018-11-14T00:03:15.533Z,0
2018-11-14T00:03:55.961Z,0
2018-11-14T00:04:36.505Z,0
2018-11-14T00:05:16.684Z,0
2018-11-14T00:05:57.310Z,0
2018-11-14T00:06:37.755Z,0
2018-11-14T00:07:18.358Z,0
2018-11-14T00:07:58.606Z,0
2018-11-14T00:08:39.005Z,0
2018-11-14T00:09:19.436Z,0
2018-11-14T00:09:59.861Z,0
2018-11-14T00:10:40.195Z,0
2018-11-14T00:11:20.636Z,0
2018-11-14T00:12:01.038Z,0
2018-11-14T00:12:41.494Z,0
2018-11-14T00:13:21.865Z,0
2018-11-14T00:14:02.325Z,0
2018-11-14T00:14:42.732Z,0
2018-11-14T00:15:23.130Z,0
2018-11-14T00:16:03.567Z,0
2018-11-14T00:16:43.988Z,0
2018-11-14T00:17:24.368Z,0
2018-11-14T00:18:04.815Z,0
2018-11-14T00:18:45.186Z,0
2018-11-14T00:19:25.622Z,0
2018-11-14T00:20:05.993Z,0
2018-11-14T00:20:46.387Z,0
2018-11-14T00:21:26.802Z,0
2018-11-14T00:22:07.216Z,0
2018-11-14T00:22:47.663Z,0
2018-11-14T00:23:28.091Z,0
2018-11-14T00:24:08.512Z,0
2018-11-14T00:24:48.963Z,0
2018-11-14T00:25:29.327Z,0
2018-11-14T00:26:09.743Z,0
2018-11-14T00:26:50.273Z,0
2018-11-14T00:27:30.658Z,0
2018-11-14T00:28:11.154Z,0
2018-11-14T00:28:53.513Z,0
2018-11-14T00:29:34.322Z,0
2018-11-14T00:30:14.741Z,0
2018-11-14T00:30:55.242Z,0
2018-11-14T00:31:35.670Z,0
2018-11-14T00:34:09.913Z,0
2018-11-14T00:35:00.415Z,0
2018-11-14T00:35:49.532Z,0
2018-11-14T00:36:38.204Z,0
2018-11-14T00:37:22.627Z,0
2018-11-14T00:38:10.689Z,0
2018-11-14T00:38:50.639Z,0
2018-11-14T00:39:31.113Z,0
2018-11-14T00:40:11.480Z,0
2018-11-14T00:40:51.921Z,0
2018-11-14T00:41:32.381Z,0
2018-11-14T00:42:12.881Z,0
2018-11-14T00:42:53.259Z,0
2018-11-14T00:43:33.997Z,0
2018-11-14T00:44:14.421Z,0
2018-11-14T00:44:54.931Z,0
2018-11-14T00:45:35.410Z,0
2018-11-14T00:46:15.727Z,0
2018-11-14T00:46:57.769Z,0
2018-11-14T00:47:38.202Z,0
2018-11-14T00:48:18.572Z,0
2018-11-14T00:48:59.061Z,0
2018-11-14T00:49:39.449Z,0
2018-11-14T00:50:19.881Z,0
2018-11-14T00:51:00.213Z,0
2018-11-14T00:51:40.584Z,0
2018-11-14T00:52:21.053Z,0
2018-11-14T00:53:01.411Z,0
2018-11-14T00:53:41.863Z,0
2018-11-14T00:54:22.350Z,0
2018-11-14T00:55:02.729Z,0
2018-11-14T00:55:43.067Z,0
2018-11-14T00:56:23.453Z,0
2018-11-14T00:57:03.826Z,0
2018-11-14T00:57:44.595Z,0
2018-11-14T00:58:24.785Z,0
2018-11-14T00:59:05.285Z,0
2018-11-14T00:59:46.049Z,0
2018-11-14T01:00:26.522Z,0
2018-11-14T01:01:06.876Z,0
2018-11-14T01:01:47.458Z,0
2018-11-14T01:02:27.704Z,0
2018-11-14T01:03:08.132Z,0
2018-11-14T01:03:48.628Z,0
2018-11-14T01:04:29.097Z,0
2018-11-14T01:05:09.524Z,0
2018-11-14T01:05:50.543Z,0
2018-11-14T01:06:31.161Z,0
2018-11-14T01:07:11.525Z,0
2018-11-14T01:07:51.739Z,0
2018-11-14T01:08:32.156Z,0
2018-11-14T01:09:12.722Z,0
2018-11-14T01:09:53.537Z,0
2018-11-14T01:10:34.406Z,0
2018-11-14T01:11:14.783Z,0
2018-11-14T01:11:55.251Z,0
2018-11-14T01:12:36.519Z,0
2018-11-14T01:13:16.933Z,0
2018-11-14T01:13:57.406Z,0
2018-11-14T01:14:38.284Z,0
2018-11-14T01:15:21.516Z,0
2018-11-14T01:16:01.970Z,0
2018-11-14T01:16:42.342Z,0
2018-11-14T01:17:22.769Z,0
2018-11-14T01:18:03.369Z,0
2018-11-14T01:18:43.803Z,0
2018-11-14T01:19:24.228Z,0
2018-11-14T01:20:04.647Z,0
2018-11-14T01:20:45.196Z,0
2018-11-14T01:21:25.536Z,0
2018-11-14T01:22:05.948Z,0
2018-11-14T01:22:46.594Z,0
2018-11-14T01:23:27.028Z,0
2018-11-14T01:24:07.419Z,0
2018-11-14T01:24:47.987Z,0
2018-11-14T01:25:28.252Z,0
2018-11-14T01:26:08.647Z,0
2018-11-14T01:26:49.177Z,0
2018-11-14T01:27:29.567Z,0
2018-11-14T01:28:09.958Z,0
2018-11-14T01:28:50.343Z,0
2018-11-14T01:29:30.768Z,0
2018-11-14T01:30:11.176Z,0
2018-11-14T01:30:51.639Z,0
2018-11-14T01:31:32.055Z,0
2018-11-14T01:32:12.452Z,0
2018-11-14T01:32:52.838Z,0
2018-11-14T01:33:33.283Z,0
2018-11-14T01:34:16.497Z,0
2018-11-14T01:36:25.653Z,0
2018-11-14T01:37:18.618Z,0
2018-11-14T01:38:11.508Z,0
2018-11-14T01:39:04.024Z,0
2018-11-14T01:39:56.598Z,0
2018-11-14T01:40:49.474Z,0
2018-11-14T01:41:41.708Z,0
2018-11-14T01:42:34.260Z,0
2018-11-14T01:43:26.401Z,0
2018-11-14T01:44:18.756Z,0
2018-11-14T01:45:11.014Z,0
2018-11-14T01:46:02.847Z,0
2018-11-14T01:46:56.335Z,0
2018-11-14T01:47:49.446Z,0
2018-11-14T01:48:42.548Z,0
2018-11-14T01:49:34.560Z,0
2018-11-14T01:50:26.873Z,0
2018-11-14T01:51:18.773Z,0
2018-11-14T01:52:11.006Z,0
2018-11-14T01:53:03.335Z,0
2018-11-14T01:53:55.554Z,0
2018-11-14T01:54:47.520Z,0
2018-11-14T01:55:39.802Z,0
2018-11-14T01:56:31.432Z,0
2018-11-14T01:57:23.958Z,0
2018-11-14T01:58:16.117Z,0
2018-11-14T01:59:09.533Z,0
2018-11-14T02:00:01.960Z,0
2018-11-14T02:00:54.395Z,0
2018-11-14T02:01:46.548Z,0
2018-11-14T02:02:38.982Z,0
2018-11-14T02:03:31.224Z,0
2018-11-14T02:04:23.508Z,0
2018-11-14T02:05:16.365Z,0
2018-11-14T02:06:08.542Z,0
2018-11-14T02:07:00.388Z,0
2018-11-14T02:07:52.528Z,0
2018-11-14T02:08:44.641Z,0
2018-11-14T02:09:35.619Z,0
2018-11-14T02:11:53.119Z,0
2018-11-14T02:12:33.728Z,0
2018-11-14T02:13:14.134Z,0
2018-11-14T02:13:55.249Z,0
2018-11-14T02:14:35.769Z,0
2018-11-14T02:15:16.207Z,0
2018-11-14T02:15:56.686Z,0
2018-11-14T02:16:37.415Z,0
2018-11-14T02:17:17.874Z,0
2018-11-14T02:17:58.271Z,0
2018-11-14T02:18:38.766Z,0
2018-11-14T02:19:19.164Z,0
2018-11-14T02:20:00.119Z,0
2018-11-14T02:20:40.144Z,0
2018-11-14T02:21:20.500Z,0
2018-11-14T02:23:24.296Z,0
2018-11-14T02:24:04.800Z,0
2018-11-14T02:24:45.146Z,0
2018-11-14T02:27:16.297Z,0
2018-11-14T02:28:09.018Z,0
2018-11-14T02:29:01.855Z,0
2018-11-14T02:29:54.529Z,0
2018-11-14T02:30:47.450Z,0
2018-11-14T02:31:39.636Z,0
2018-11-14T02:32:33.432Z,0
2018-11-14T02:33:25.360Z,0
2018-11-14T02:35:55.838Z,0
2018-11-14T02:36:35.719Z,0
2018-11-14T02:37:16.174Z,0
2018-11-14T02:37:57.271Z,0
2018-11-14T02:38:37.663Z,0
2018-11-14T02:39:18.224Z,0
2018-11-14T02:39:58.559Z,0
2018-11-14T02:40:38.971Z,0
2018-11-14T02:41:19.416Z,0
2018-11-14T02:41:59.821Z,0
2018-11-14T02:42:40.647Z,0
2018-11-14T02:43:20.825Z,0
2018-11-14T02:44:01.931Z,0
2018-11-14T02:44:42.391Z,0
2018-11-14T02:45:22.876Z,0
2018-11-14T02:46:04.048Z,0
2018-11-14T02:46:44.510Z,0
2018-11-14T02:47:24.877Z,0
2018-11-14T02:48:05.316Z,0
2018-11-14T02:48:45.783Z,0
2018-11-14T02:49:26.172Z,0
2018-11-14T02:50:06.637Z,0
2018-11-14T02:50:46.999Z,0
2018-11-14T02:51:27.497Z,0
2018-11-14T02:52:08.857Z,0
2018-11-14T02:52:49.254Z,0
2018-11-14T02:53:29.662Z,0
2018-11-14T02:54:10.115Z,0
2018-11-14T02:54:50.661Z,0
2018-11-14T02:55:30.974Z,0
2018-11-14T02:56:11.399Z,0
2018-11-14T02:56:51.818Z,0
2018-11-14T02:57:32.182Z,0
2018-11-14T02:58:13.072Z,0
2018-11-14T02:58:53.397Z,0
2018-11-14T02:59:33.832Z,0
2018-11-14T03:00:14.179Z,0
2018-11-14T03:00:54.668Z,0
2018-11-14T03:01:35.143Z,0
2018-11-14T03:02:15.522Z,0
2018-11-14T03:02:55.973Z,0
2018-11-14T03:03:36.552Z,0
2018-11-14T03:04:16.825Z,0
2018-11-14T03:04:57.428Z,0
2018-11-14T03:05:37.934Z,0
2018-11-14T03:06:18.408Z,0
2018-11-14T03:06:58.864Z,0
2018-11-14T03:09:13.365Z,0
2018-11-14T03:09:53.824Z,0
2018-11-14T03:10:34.245Z,0
2018-11-14T03:11:14.650Z,0
2018-11-14T03:11:55.032Z,0
2018-11-14T03:12:35.501Z,0
2018-11-14T03:13:15.856Z,0
2018-11-14T03:13:56.226Z,0
2018-11-14T03:14:36.633Z,0
2018-11-14T03:15:17.063Z,0
2018-11-14T03:15:57.472Z,0
2018-11-14T03:16:37.849Z,0
2018-11-14T03:17:18.244Z,0
2018-11-14T03:17:58.635Z,0
2018-11-14T03:18:39.052Z,0
2018-11-14T03:19:19.473Z,0
2018-11-14T03:19:59.854Z,0
2018-11-14T03:20:40.229Z,0
2018-11-14T03:21:20.643Z,0
2018-11-14T03:22:01.012Z,0
2018-11-14T03:22:41.396Z,0
2018-11-14T03:23:21.773Z,0
2018-11-14T03:24:02.184Z,0
2018-11-14T03:24:42.592Z,0
2018-11-14T03:25:23.003Z,0
2018-11-14T03:26:03.394Z,0
2018-11-14T03:26:43.812Z,0
2018-11-14T03:27:24.205Z,0
2018-11-14T03:28:04.575Z,0
2018-11-14T03:28:44.989Z,0
2018-11-14T03:29:25.397Z,0
2018-11-14T03:30:05.766Z,0
2018-11-14T03:30:46.186Z,0
2018-11-14T03:31:26.578Z,0
2018-11-14T03:32:06.957Z,0
2018-11-14T03:32:47.367Z,0
2018-11-14T03:33:27.777Z,0
2018-11-14T03:34:08.181Z,0
2018-11-14T03:34:48.554Z,0
2018-11-14T03:35:28.961Z,0
2018-11-14T03:36:09.310Z,0
2018-11-14T03:36:49.711Z,0
2018-11-14T03:37:30.120Z,0
2018-11-14T03:38:10.568Z,0
2018-11-14T03:38:50.947Z,0
2018-11-14T03:39:31.355Z,0
2018-11-14T03:40:11.741Z,0
2018-11-14T03:40:52.157Z,0
2018-11-14T03:41:32.541Z,0
2018-11-14T03:42:12.928Z,0
2018-11-14T03:42:53.342Z,0
2018-11-14T03:43:33.679Z,0
2018-11-14T03:44:14.071Z,0
2018-11-14T03:44:54.488Z,0
2018-11-14T03:45:34.871Z,0
2018-11-14T03:46:15.277Z,0
2018-11-14T03:46:55.683Z,0
2018-11-14T03:49:26.009Z,0
2018-11-14T03:50:18.165Z,0
2018-11-14T03:51:09.977Z,0
2018-11-14T03:52:02.364Z,0
2018-11-14T03:52:54.381Z,0
2018-11-14T03:53:47.175Z,0
2018-11-14T03:54:39.062Z,0
2018-11-14T03:55:30.957Z,0
2018-11-14T03:56:22.800Z,0
2018-11-14T03:57:15.134Z,0
2018-11-14T03:58:07.384Z,0
2018-11-14T03:58:59.353Z,0
2018-11-14T03:59:52.083Z,0
2018-11-14T04:00:44.028Z,0
2018-11-14T04:01:36.257Z,0
2018-11-14T04:02:28.248Z,0
2018-11-14T04:03:20.447Z,0
2018-11-14T04:04:12.258Z,0
2018-11-14T04:05:05.377Z,0
2018-11-14T04:05:57.600Z,0
2018-11-14T04:06:50.521Z,0
2018-11-14T04:07:42.688Z,0
2018-11-14T04:08:34.943Z,0
2018-11-14T04:09:26.998Z,0
2018-11-14T04:10:18.932Z,0
2018-11-14T04:11:11.017Z,0
2018-11-14T04:12:02.933Z,0
2018-11-14T04:12:55.307Z,0
2018-11-14T04:13:47.665Z,0
2018-11-14T04:14:40.161Z,0
2018-11-14T04:15:32.571Z,0
2018-11-14T04:16:24.589Z,0
2018-11-14T04:17:16.865Z,0
2018-11-14T04:18:09.151Z,0
2018-11-14T04:19:01.327Z,0
2018-11-14T04:19:53.476Z,0
2018-11-14T04:20:45.839Z,0
2018-11-14T04:21:37.887Z,0
2018-11-14T04:22:31.560Z,0
2018-11-14T04:23:23.743Z,0
2018-11-14T04:24:17.103Z,0
2018-11-14T04:25:09.152Z,0
2018-11-14T04:26:01.087Z,0
2018-11-14T04:26:53.520Z,0
2018-11-14T04:27:46.241Z,0
2018-11-14T05:07:30.026Z,0
2018-11-14T05:10:25.966Z,0
2018-11-14T05:11:06.290Z,0
2018-11-14T05:11:53.371Z,0
2018-11-14T05:12:33.870Z,0
2018-11-14T05:13:14.191Z,0
2018-11-14T05:13:54.624Z,0
2018-11-14T05:14:38.656Z,0
2018-11-14T05:15:24.934Z,0
2018-11-14T05:19:16.067Z,0
2018-11-14T05:21:21.410Z,0
2018-11-14T05:22:13.808Z,0
2018-11-14T05:23:06.269Z,0
2018-11-14T05:23:58.916Z,0
2018-11-14T05:24:51.097Z,0
2018-11-14T05:25:43.230Z,0
2018-11-14T05:26:35.701Z,0
2018-11-14T05:27:28.788Z,0
2018-11-14T05:28:21.122Z,0
2018-11-14T05:29:13.272Z,0
2018-11-14T05:30:05.121Z,0
2018-11-14T05:30:57.762Z,0
2018-11-14T05:31:50.037Z,0
2018-11-14T05:32:42.164Z,0
2018-11-14T05:33:34.155Z,0
2018-11-14T05:34:26.015Z,0
2018-11-14T05:35:18.334Z,0
2018-11-14T05:36:10.043Z,0
2018-11-14T05:37:02.425Z,0
2018-11-14T05:37:54.783Z,0
2018-11-14T05:38:47.096Z,0
2018-11-14T05:39:40.801Z,0
2018-11-14T05:40:33.291Z,0
2018-11-14T05:41:25.226Z,0
2018-11-14T05:42:17.771Z,0
2018-11-14T05:43:10.218Z,0
2018-11-14T05:44:02.465Z,0
2018-11-14T05:44:54.593Z,0
2018-11-14T05:45:46.582Z,0
2018-11-14T05:46:39.094Z,0
2018-11-14T05:47:31.298Z,0
2018-11-14T05:48:25.076Z,0
2018-11-14T05:49:18.064Z,0
2018-11-14T05:50:10.147Z,0
2018-11-14T05:51:02.880Z,0
2018-11-14T05:51:55.062Z,0
2018-11-14T05:52:47.295Z,0
2018-11-14T05:53:40.353Z,0
2018-11-14T05:54:33.450Z,0
2018-11-14T05:55:25.447Z,0
2018-11-14T05:56:17.801Z,0
2018-11-14T05:57:11.872Z,0
2018-11-14T05:58:04.128Z,0
2018-11-14T05:58:56.062Z,0
2018-11-14T05:59:48.220Z,0
2018-11-14T06:00:41.987Z,0
2018-11-14T06:01:29.658Z,0
2018-11-14T06:02:10.186Z,0
2018-11-14T06:02:50.513Z,0
2018-11-14T06:03:30.889Z,0
2018-11-14T06:04:11.265Z,0
2018-11-14T06:04:51.661Z,0
2018-11-14T06:05:32.097Z,0
2018-11-14T06:06:12.506Z,0
2018-11-14T06:06:53.037Z,0
2018-11-14T06:07:33.399Z,0
2018-11-14T06:08:13.730Z,0
2018-11-14T06:08:54.264Z,0
2018-11-14T06:09:34.726Z,0
2018-11-14T06:10:15.125Z,0
2018-11-14T06:10:55.511Z,4
2018-11-14T06:11:36.190Z,4
2018-11-14T06:12:17.248Z,0
2018-11-14T06:12:57.913Z,0
2018-11-14T06:13:38.593Z,0
2018-11-14T06:14:19.188Z,4
2018-11-14T06:14:59.768Z,4
2018-11-14T06:15:55.416Z,0
2018-11-14T06:16:36.090Z,4
2018-11-14T06:17:21.492Z,0
2018-11-14T06:18:02.324Z,4
2018-11-14T06:18:42.843Z,4
2018-11-14T06:19:24.285Z,4
2018-11-14T06:20:05.542Z,4
2018-11-14T06:20:46.792Z,4
2018-11-14T06:21:27.424Z,4
2018-11-14T06:22:08.957Z,4
2018-11-14T06:22:53.538Z,4
2018-11-14T06:23:40.503Z,8
2018-11-14T06:24:23.692Z,8
2018-11-14T06:25:04.315Z,8
2018-11-14T06:25:46.574Z,12
2018-11-14T06:26:30.167Z,12
2018-11-14T06:27:12.768Z,16
2018-11-14T06:27:53.545Z,16
2018-11-14T06:30:13.446Z,16
2018-11-14T06:31:12.538Z,24
2018-11-14T06:32:07.721Z,24
2018-11-14T06:33:06.346Z,28
2018-11-14T06:38:53.815Z,56
2018-11-14T06:41:22.934Z,68
2018-11-14T06:44:45.223Z,96
2018-11-14T06:46:06.774Z,104
2018-11-14T06:47:10.347Z,112
2018-11-14T06:48:24.435Z,124
2018-11-14T06:51:33.305Z,152
2018-11-14T06:52:27.705Z,164
2018-11-14T06:53:28.032Z,176
2018-11-14T06:54:32.227Z,192
2018-11-14T06:55:34.034Z,208
2018-11-14T06:56:34.546Z,220
2018-11-14T06:57:34.699Z,232
2018-11-14T06:58:39.604Z,244
2018-11-14T06:59:36.165Z,256
2018-11-14T07:00:35.209Z,272
2018-11-14T07:01:30.717Z,300
2018-11-14T07:02:29.951Z,340
2018-11-14T07:03:28.210Z,364
2018-11-14T07:04:22.827Z,360
2018-11-14T07:05:19.809Z,396
2018-11-14T07:06:15.787Z,472
2018-11-14T07:07:27.082Z,560
2018-11-14T07:08:32.085Z,628
2018-11-14T07:09:39.383Z,656
2018-11-14T07:10:38.336Z,676
2018-11-14T07:11:38.193Z,712
2018-11-14T07:12:41.886Z,752
2018-11-14T07:15:24.443Z,828
2018-11-14T07:19:38.175Z,996
2018-11-14T07:20:17.741Z,1036
2018-11-14T07:20:58.360Z,1084
2018-11-14T07:21:40.747Z,1112
2018-11-14T07:22:19.844Z,1116
2018-11-14T07:23:00.878Z,1104
2018-11-14T07:23:41.315Z,1100
2018-11-14T07:24:21.655Z,1112
2018-11-14T07:25:02.118Z,1120
2018-11-14T07:27:14.794Z,1112
2018-11-14T07:27:59.139Z,1116
2018-11-14T07:28:40.151Z,1096
2018-11-14T07:29:20.146Z,1048
2018-11-14T07:30:00.681Z,976
2018-11-14T07:30:41.317Z,908
2018-11-14T07:31:21.853Z,872
2018-11-14T07:32:02.366Z,916
2018-11-14T07:32:42.868Z,976
2018-11-14T07:33:25.188Z,1040
2018-11-14T07:34:04.960Z,1032
2018-11-14T07:34:45.304Z,920
2018-11-14T07:35:25.715Z,832
2018-11-14T07:36:06.143Z,780
2018-11-14T07:36:47.095Z,772
2018-11-14T07:37:27.520Z,776
2018-11-14T07:38:08.233Z,788
2018-11-14T07:38:48.888Z,804
2018-11-14T07:39:29.464Z,816
2018-11-14T07:40:09.986Z,828
2018-11-14T07:40:50.462Z,836
2018-11-14T07:41:30.919Z,840
2018-11-14T07:42:11.318Z,848
2018-11-14T07:42:52.246Z,856
2018-11-14T07:43:32.833Z,860
2018-11-14T07:44:16.165Z,860
2018-11-14T07:44:57.208Z,860
2018-11-14T07:45:37.533Z,868
2018-11-14T07:46:18.402Z,868
2018-11-14T07:46:59.062Z,872
2018-11-14T07:47:39.580Z,880
2018-11-14T07:48:20.033Z,892
2018-11-14T07:49:01.780Z,896
2018-11-14T07:49:41.589Z,900
2018-11-14T07:50:23.720Z,904
2018-11-14T07:51:05.383Z,920
2018-11-14T07:51:44.886Z,932
2018-11-14T07:52:25.369Z,948
2018-11-14T07:53:05.942Z,960
2018-11-14T07:53:46.422Z,976
2018-11-14T07:54:26.953Z,988
2018-11-14T07:55:07.801Z,992
2018-11-14T07:55:48.353Z,996
2018-11-14T07:56:28.780Z,996
2018-11-14T07:57:10.160Z,1000
2018-11-14T07:57:51.147Z,1004
2018-11-14T07:58:31.155Z,1008
2018-11-14T07:59:11.606Z,1016
2018-11-14T07:59:52.218Z,1028
2018-11-14T08:00:32.692Z,1032
2018-11-14T08:01:14.327Z,1036
2018-11-14T08:01:54.519Z,1036
2018-11-14T08:02:35.046Z,1040
2018-11-14T08:03:15.761Z,1044
2018-11-14T08:03:56.490Z,1052
2018-11-14T08:04:36.868Z,1052
2018-11-14T08:05:17.567Z,1056
2018-11-14T08:05:58.312Z,1068
2018-11-14T08:06:38.847Z,1084
2018-11-14T08:07:22.116Z,1088
2018-11-14T08:08:02.572Z,1084
2018-11-14T08:08:42.944Z,1076
2018-11-14T08:09:23.443Z,1064
2018-11-14T08:10:03.962Z,1044
2018-11-14T08:10:44.447Z,1036
2018-11-14T08:11:24.975Z,1040
2018-11-14T08:12:05.464Z,1056
2018-11-14T08:12:45.897Z,1076
2018-11-14T08:13:26.557Z,1084
2018-11-14T08:14:07.085Z,1084
2018-11-14T08:14:47.659Z,1092
2018-11-14T08:15:28.908Z,1092
2018-11-14T08:16:09.806Z,1092
2018-11-14T08:16:50.566Z,1100
2018-11-14T08:17:31.322Z,1116
2018-11-14T08:18:12.316Z,1124
2018-11-14T08:18:53.160Z,1120
2018-11-14T08:19:33.735Z,1116
2018-11-14T08:20:14.729Z,1120
2018-11-14T08:20:55.258Z,1128
2018-11-14T08:21:35.792Z,1128
2018-11-14T08:22:17.291Z,1124
2018-11-14T08:23:02.867Z,1124
2018-11-14T08:23:44.042Z,1124
2018-11-14T08:24:24.665Z,1128
2018-11-14T08:25:05.423Z,1124
2018-11-14T08:27:25.562Z,1124
2018-11-14T08:28:06.394Z,1124
2018-11-14T08:28:46.868Z,1116
2018-11-14T08:29:27.967Z,1116
2018-11-14T08:30:08.857Z,1112
2018-11-14T08:30:49.446Z,1112
2018-11-14T08:31:29.984Z,1108
2018-11-14T08:32:10.554Z,1104
2018-11-14T08:32:51.187Z,1112
2018-11-14T08:33:31.858Z,1116
2018-11-14T08:34:12.338Z,1112
2018-11-14T08:34:53.028Z,1120
2018-11-14T08:35:33.525Z,1116
2018-11-14T08:36:14.475Z,1120
2018-11-14T08:36:54.901Z,1124
2018-11-14T08:37:35.585Z,1124
2018-11-14T08:38:18.313Z,1128
2018-11-14T08:38:58.562Z,1124
2018-11-14T08:39:39.360Z,1120
2018-11-14T08:40:20.567Z,1112
2018-11-14T08:41:01.057Z,1116
2018-11-14T08:41:42.296Z,1108
2018-11-14T08:42:23.697Z,1104
2018-11-14T08:43:04.202Z,1108
2018-11-14T08:43:45.060Z,1108
2018-11-14T08:44:26.362Z,1112
2018-11-14T08:45:07.623Z,1108
2018-11-14T08:45:49.244Z,1108
2018-11-14T08:46:28.866Z,1108
2018-11-14T08:47:09.706Z,1104
2018-11-14T08:47:50.270Z,1104
2018-11-14T08:48:32.249Z,1100
2018-11-14T08:49:12.211Z,1092
2018-11-14T08:49:52.954Z,1088
2018-11-14T08:50:35.237Z,1092
2018-11-14T08:51:14.588Z,1088
2018-11-14T08:51:55.388Z,1100
2018-11-14T08:52:36.933Z,1104
2018-11-14T08:53:17.256Z,1092
2018-11-14T08:53:59.373Z,1096
2018-11-14T08:54:40.242Z,1096
2018-11-14T08:55:20.742Z,1096
2018-11-14T08:56:01.220Z,1096
2018-11-14T08:56:42.538Z,1108
2018-11-14T08:57:22.541Z,1100
2018-11-14T08:58:03.304Z,1100
2018-11-14T08:58:43.679Z,1100
2018-11-14T08:59:24.490Z,1108
2018-11-14T09:00:05.058Z,1108
2018-11-14T09:00:45.611Z,1104
2018-11-14T09:01:27.201Z,1100
2018-11-14T09:02:07.013Z,1104
2018-11-14T09:02:47.766Z,1108
2018-11-14T09:03:28.277Z,1116
2018-11-14T09:04:08.661Z,1124
2018-11-14T09:04:49.342Z,1124
2018-11-14T09:05:29.920Z,1120
2018-11-14T09:06:10.666Z,1120
2018-11-14T09:06:51.530Z,1120
2018-11-14T09:07:32.443Z,1120
2018-11-14T09:08:12.696Z,1128
2018-11-14T09:08:53.443Z,1136
2018-11-14T09:09:33.932Z,1136
2018-11-14T09:10:14.473Z,1140
2018-11-14T09:10:55.154Z,1140
2018-11-14T09:11:35.968Z,1136
2018-11-14T09:12:16.874Z,1140
2018-11-14T09:12:57.655Z,1140
2018-11-14T09:13:38.302Z,1140
2018-11-14T09:14:19.130Z,1140
2018-11-14T09:14:59.484Z,1140
2018-11-14T09:15:39.861Z,1140
2018-11-14T09:16:20.334Z,1144
2018-11-14T09:17:00.888Z,1140
2018-11-14T09:17:41.523Z,1136
2018-11-14T09:18:21.989Z,1136
2018-11-14T09:19:02.761Z,1136
2018-11-14T09:19:43.494Z,1140
2018-11-14T09:20:24.390Z,1144
2018-11-14T09:21:05.033Z,1140
2018-11-14T09:21:46.722Z,1136
2018-11-14T09:22:26.680Z,1136
2018-11-14T09:23:08.507Z,1136
2018-11-14T09:23:48.230Z,1132
2018-11-14T09:24:28.877Z,1132
2018-11-14T09:25:09.594Z,1136
2018-11-14T09:25:50.636Z,1132
2018-11-14T09:26:31.271Z,1132
2018-11-14T09:27:11.764Z,1124
2018-11-14T09:27:52.561Z,1124
2018-11-14T09:28:33.174Z,1128
2018-11-14T09:29:13.813Z,1136
2018-11-14T09:29:55.340Z,1140
2018-11-14T09:30:35.399Z,1144
2018-11-14T09:31:17.108Z,1140
2018-11-14T09:31:57.884Z,1144
2018-11-14T09:32:39.371Z,1144
2018-11-14T09:33:20.348Z,1144
2018-11-14T09:34:00.957Z,1148
2018-11-14T09:34:41.588Z,1144
2018-11-14T09:35:23.206Z,1148
2018-11-14T09:36:04.015Z,1152
2018-11-14T09:36:44.373Z,1148
2018-11-14T09:37:25.726Z,1148
2018-11-14T09:38:06.268Z,1144
2018-11-14T09:38:46.249Z,1152
2018-11-14T09:39:26.779Z,1160
2018-11-14T09:40:07.308Z,1168
2018-11-14T09:42:28.793Z,1172
2018-11-14T09:43:09.503Z,1176
2018-11-14T09:43:49.857Z,1176
2018-11-14T09:44:31.100Z,1172
2018-11-14T09:45:11.614Z,1168
2018-11-14T09:45:52.129Z,1168
2018-11-14T09:46:32.713Z,1168
2018-11-14T09:47:14.173Z,1164
2018-11-14T09:47:54.436Z,1164
2018-11-14T09:48:34.637Z,1164
2018-11-14T09:49:16.449Z,1164
2018-11-14T09:49:56.724Z,1164
2018-11-14T09:50:38.241Z,1164
2018-11-14T09:51:19.879Z,1160
2018-11-14T09:52:00.711Z,1156
2018-11-14T09:52:41.322Z,1152
2018-11-14T09:53:23.635Z,1152
2018-11-14T09:54:03.908Z,1148
2018-11-14T09:54:44.656Z,1144
2018-11-14T09:55:25.199Z,1140
2018-11-14T09:56:05.634Z,1140
2018-11-14T09:56:46.257Z,1140
2018-11-14T09:57:26.802Z,1136
2018-11-14T09:58:08.413Z,1136
2018-11-14T09:58:50.496Z,1136
2018-11-14T09:59:29.929Z,1128
2018-11-14T10:00:10.562Z,1124
2018-11-14T10:00:51.016Z,1120
2018-11-14T10:01:31.676Z,1116
2018-11-14T10:02:12.912Z,1116
2018-11-14T10:02:53.517Z,1116
2018-11-14T10:03:34.223Z,1116
2018-11-14T10:04:14.660Z,1116
2018-11-14T10:04:55.180Z,1108
2018-11-14T10:05:35.808Z,1108
2018-11-14T10:06:16.371Z,1104
2018-11-14T10:06:57.080Z,1100
2018-11-14T10:07:38.071Z,1096
2018-11-14T10:08:18.834Z,1096
2018-11-14T10:08:59.548Z,1096
2018-11-14T10:09:41.713Z,1092
2018-11-14T10:10:22.442Z,1092
2018-11-14T10:11:03.494Z,1100
2018-11-14T10:11:43.626Z,1096
2018-11-14T10:12:24.266Z,1104
2018-11-14T10:13:04.979Z,1104
2018-11-14T10:13:45.611Z,1108
2018-11-14T10:14:26.066Z,1104
2018-11-14T10:15:06.912Z,1104
2018-11-14T10:15:47.615Z,1104
2018-11-14T10:16:28.107Z,1104
2018-11-14T10:17:08.544Z,1100
2018-11-14T10:17:49.195Z,1100
2018-11-14T10:18:29.868Z,1100
2018-11-14T10:19:10.764Z,1100
2018-11-14T10:19:51.006Z,1100
2018-11-14T10:20:31.442Z,1100
2018-11-14T10:21:12.005Z,1096
2018-11-14T10:21:52.393Z,1092
2018-11-14T10:22:32.934Z,1096
2018-11-14T10:23:17.471Z,1096
2018-11-14T10:24:01.908Z,1096
2018-11-14T10:24:43.042Z,1096
2018-11-14T10:25:23.923Z,1096
2018-11-14T10:26:04.587Z,1096
2018-11-14T10:26:45.467Z,1096
2018-11-14T10:27:26.186Z,1096
2018-11-14T10:28:06.456Z,1092
2018-11-14T10:28:48.485Z,1092
2018-11-14T10:29:29.211Z,1092
2018-11-14T11:07:36.633Z,1068
2018-11-14T11:08:37.458Z,1068
2018-11-14T11:09:35.470Z,1072
2018-11-14T11:10:28.065Z,1076
2018-11-14T11:11:22.613Z,1076
2018-11-14T11:12:15.145Z,1080
2018-11-14T11:13:08.429Z,1076
2018-11-14T11:14:03.799Z,1076
2018-11-14T11:14:57.366Z,1076
2018-11-14T11:15:54.352Z,1080
2018-11-14T11:16:49.199Z,1080
2018-11-14T11:17:45.191Z,1088
2018-11-14T11:18:39.571Z,1092
2018-11-14T11:19:34.875Z,1092
2018-11-14T11:20:40.386Z,1096
2018-11-14T11:21:43.943Z,1100
2018-11-14T11:22:53.650Z,1100
2018-11-14T11:26:50.208Z,1072
2018-11-14T11:27:47.746Z,1072
2018-11-14T11:28:51.961Z,1084
2018-11-14T11:30:03.640Z,1100
2018-11-14T11:31:02.501Z,1108
2018-11-14T11:32:08.190Z,1124
2018-11-14T11:33:17.907Z,1136
2018-11-14T11:34:26.150Z,1136
2018-11-14T11:35:23.657Z,1144
2018-11-14T11:36:17.375Z,1152
2018-11-14T11:37:20.408Z,1144
2018-11-14T11:40:15.433Z,1124
2018-11-14T11:40:56.304Z,1120
2018-11-14T11:41:36.631Z,1120
2018-11-14T11:42:17.647Z,1108
2018-11-14T11:42:58.815Z,1100
2018-11-14T11:43:38.805Z,1112
2018-11-14T11:44:19.831Z,1120
2018-11-14T11:45:00.215Z,1128
2018-11-14T11:45:41.798Z,1124
2018-11-14T11:46:24.228Z,1124
2018-11-14T11:47:06.023Z,1124
2018-11-14T11:47:46.344Z,1124
2018-11-14T11:48:27.000Z,1120
2018-11-14T11:49:07.399Z,1116
2018-11-14T11:49:50.795Z,1116
2018-11-14T11:50:31.435Z,1116
2018-11-14T11:51:11.837Z,1116
2018-11-14T11:51:53.278Z,1116
2018-11-14T11:52:35.327Z,1112
2018-11-14T11:53:16.542Z,1112
2018-11-14T11:53:58.895Z,1112
2018-11-14T11:54:39.497Z,1112
2018-11-14T11:55:20.782Z,1112
2018-11-14T11:56:01.294Z,1104
2018-11-14T11:56:42.356Z,1112
2018-11-14T11:57:23.712Z,1108
2018-11-14T11:58:04.310Z,1112
2018-11-14T11:58:44.898Z,1112
2018-11-14T11:59:26.395Z,1112
2018-11-14T12:00:07.599Z,1112
2018-11-14T12:00:47.475Z,1112
2018-11-14T12:01:29.917Z,1112
2018-11-14T12:02:10.227Z,1112
2018-11-14T12:02:50.726Z,1116
2018-11-14T12:03:31.344Z,1120
2018-11-14T12:04:11.943Z,1120
2018-11-14T12:04:53.295Z,1120
2018-11-14T12:05:35.756Z,1124
2018-11-14T12:06:16.374Z,1124
2018-11-14T12:06:56.773Z,1128
2018-11-14T12:07:38.615Z,1124
2018-11-14T12:08:19.836Z,1124
2018-11-14T12:09:01.989Z,1124
2018-11-14T12:09:42.862Z,1112
2018-11-14T12:10:23.360Z,1104
2018-11-14T12:11:04.312Z,1108
2018-11-14T12:11:44.940Z,1116
2018-11-14T12:12:25.476Z,1116
2018-11-14T12:13:07.289Z,1116
2018-11-14T12:13:47.553Z,1120
2018-11-14T12:14:28.062Z,1120
2018-11-14T12:15:09.253Z,1128
2018-11-14T12:15:49.697Z,1128
2018-11-14T12:16:31.431Z,1128
2018-11-14T12:17:12.088Z,1124
2018-11-14T12:17:52.896Z,1128
2018-11-14T12:18:34.247Z,1128
2018-11-14T12:19:14.365Z,1128
2018-11-14T12:19:55.163Z,1128
2018-11-14T12:20:35.783Z,1128
2018-11-14T12:21:16.485Z,1104
2018-11-14T12:21:57.259Z,1132
2018-11-14T12:22:38.792Z,1132
2018-11-14T12:23:19.084Z,1128
2018-11-14T12:23:59.850Z,1104
2018-11-14T12:24:41.604Z,1104
2018-11-14T12:25:23.518Z,1120